ECG weather

Elizabeth City Regional Airport & Coast Guard Air Station
Elizabeth City, North Carolina, United States

Public forecast

Using degrees Fahrenheit for public forecast. Weather courtesy of forecast.io.

Current aviation weather report (METAR) for Elizabeth City Regional Airport & Coast Guard Air Station

Retrieved 2019/10/22 08:54 UTC (55 minutes ago):

KECG 220854Z AUTO 00000KT 8SM OVC011 16/14 A3004 RMK AO2 SLP173 T01560144 58010

Aviation forecast (TAF) for Elizabeth City Regional Airport & Coast Guard Air Station

Retrieved 2019/10/22 06:48 UTC (3 hours ago):

TAF TAF KECG 220545Z 2206/2306 27006KT P6SM OVC012 FM221700 15010KT P6SM VCSH SCT025 BKN045 FM222000 15012KT 6SM -SHRA BKN025 FM222300 17011KT P6SM OVC012 FM230400 26010KT P6SM BKN020